sensor_id;sensor_type;location;lat;lon;timestamp;pressure;altitude;pressure_sealevel;temperature;humidity
82395;BME280;72031;51.786;4.662;2024-01-07T00:00:20;101917.06;;;3.03;75.12
82395;BME280;72031;51.786;4.662;2024-01-07T00:02:45;101917.13;;;3.00;74.77
82395;BME280;72031;51.786;4.662;2024-01-07T00:05:11;101911.72;;;3.06;75.24
82395;BME280;72031;51.786;4.662;2024-01-07T00:07:36;101912.66;;;3.03;74.76
82395;BME280;72031;51.786;4.662;2024-01-07T00:10:02;101903.69;;;3.12;75.16
82395;BME280;72031;51.786;4.662;2024-01-07T00:12:28;101923.00;;;3.13;75.16
82395;BME280;72031;51.786;4.662;2024-01-07T00:14:54;101921.16;;;3.16;74.69
82395;BME280;72031;51.786;4.662;2024-01-07T00:17:20;101924.63;;;3.18;75.19
82395;BME280;72031;51.786;4.662;2024-01-07T00:19:45;101937.16;;;3.08;74.86
82395;BME280;72031;51.786;4.662;2024-01-07T00:22:11;101931.22;;;2.99;75.49
82395;BME280;72031;51.786;4.662;2024-01-07T00:24:36;101932.09;;;2.98;76.10
82395;BME280;72031;51.786;4.662;2024-01-07T00:27:02;101926.09;;;2.91;76.28
82395;BME280;72031;51.786;4.662;2024-01-07T00:29:28;101934.81;;;2.95;75.45
82395;BME280;72031;51.786;4.662;2024-01-07T00:31:53;101934.97;;;2.86;76.13
82395;BME280;72031;51.786;4.662;2024-01-07T00:34:19;101938.63;;;2.80;75.85
82395;BME280;72031;51.786;4.662;2024-01-07T00:36:44;101952.72;;;2.77;75.23
82395;BME280;72031;51.786;4.662;2024-01-07T00:39:10;101951.06;;;2.73;75.60
82395;BME280;72031;51.786;4.662;2024-01-07T00:41:35;101943.06;;;2.78;75.43
82395;BME280;72031;51.786;4.662;2024-01-07T00:44:01;101951.03;;;2.75;75.27
82395;BME280;72031;51.786;4.662;2024-01-07T00:46:26;101950.97;;;2.78;75.73
82395;BME280;72031;51.786;4.662;2024-01-07T00:48:52;101958.00;;;2.77;75.55
82395;BME280;72031;51.786;4.662;2024-01-07T00:51:17;101962.44;;;2.75;75.13
82395;BME280;72031;51.786;4.662;2024-01-07T00:53:43;101955.34;;;2.77;75.34
82395;BME280;72031;51.786;4.662;2024-01-07T00:56:09;101961.53;;;2.76;75.23
82395;BME280;72031;51.786;4.662;2024-01-07T00:58:36;101961.66;;;2.70;75.42
82395;BME280;72031;51.786;4.662;2024-01-07T01:01:01;101958.94;;;2.75;75.62
82395;BME280;72031;51.786;4.662;2024-01-07T01:03:27;101965.03;;;2.77;75.44
82395;BME280;72031;51.786;4.662;2024-01-07T01:05:53;101964.16;;;2.76;75.71
82395;BME280;72031;51.786;4.662;2024-01-07T01:08:20;101969.47;;;2.75;75.01
82395;BME280;72031;51.786;4.662;2024-01-07T01:10:45;101958.00;;;2.77;74.98
82395;BME280;72031;51.786;4.662;2024-01-07T01:13:11;101961.63;;;2.72;74.88
82395;BME280;72031;51.786;4.662;2024-01-07T01:15:36;101967.84;;;2.69;75.54
82395;BME280;72031;51.786;4.662;2024-01-07T01:18:02;101967.88;;;2.66;75.67
82395;BME280;72031;51.786;4.662;2024-01-07T01:20:28;101973.16;;;2.66;75.79
82395;BME280;72031;51.786;4.662;2024-01-07T01:22:54;101971.56;;;2.58;75.92
82395;BME280;72031;51.786;4.662;2024-01-07T01:25:19;101973.31;;;2.57;75.88
82395;BME280;72031;51.786;4.662;2024-01-07T01:27:44;101982.13;;;2.56;76.06
82395;BME280;72031;51.786;4.662;2024-01-07T01:30:11;101977.78;;;2.52;76.10
82395;BME280;72031;51.786;4.662;2024-01-07T01:32:36;101987.50;;;2.50;76.83
82395;BME280;72031;51.786;4.662;2024-01-07T01:35:02;101986.59;;;2.51;76.97
82395;BME280;72031;51.786;4.662;2024-01-07T01:37:28;101983.09;;;2.50;77.29
82395;BME280;72031;51.786;4.662;2024-01-07T01:39:54;101996.31;;;2.49;76.66
82395;BME280;72031;51.786;4.662;2024-01-07T01:42:19;101995.38;;;2.51;76.66
82395;BME280;72031;51.786;4.662;2024-01-07T01:44:46;101991.91;;;2.49;77.11
82395;BME280;72031;51.786;4.662;2024-01-07T01:47:12;101998.13;;;2.45;77.26
82395;BME280;72031;51.786;4.662;2024-01-07T01:49:38;102003.53;;;2.38;77.53
82395;BME280;72031;51.786;4.662;2024-01-07T01:52:04;101999.91;;;2.43;77.90
82395;BME280;72031;51.786;4.662;2024-01-07T01:54:30;102010.50;;;2.40;77.40
82395;BME280;72031;51.786;4.662;2024-01-07T01:56:57;102001.75;;;2.40;77.52
82395;BME280;72031;51.786;4.662;2024-01-07T01:59:23;102005.28;;;2.39;77.85
82395;BME280;72031;51.786;4.662;2024-01-07T02:01:50;102009.69;;;2.35;78.05
82395;BME280;72031;51.786;4.662;2024-01-07T02:04:16;102017.63;;;2.34;78.84
82395;BME280;72031;51.786;4.662;2024-01-07T02:06:42;102005.34;;;2.36;78.50
82395;BME280;72031;51.786;4.662;2024-01-07T02:09:10;102013.16;;;2.39;78.22
82395;BME280;72031;51.786;4.662;2024-01-07T02:11:35;102011.47;;;2.35;78.12
82395;BME280;72031;51.786;4.662;2024-01-07T02:14:00;102019.41;;;2.33;78.94
82395;BME280;72031;51.786;4.662;2024-01-07T02:16:26;102022.06;;;2.32;78.70
82395;BME280;72031;51.786;4.662;2024-01-07T02:18:51;102019.44;;;2.32;78.94
82395;BME280;72031;51.786;4.662;2024-01-07T02:21:17;102032.56;;;2.33;79.46
82395;BME280;72031;51.786;4.662;2024-01-07T02:23:42;102028.09;;;2.38;79.19
82395;BME280;72031;51.786;4.662;2024-01-07T02:26:08;102029.81;;;2.41;79.50
82395;BME280;72031;51.786;4.662;2024-01-07T02:28:34;102028.09;;;2.40;79.67
82395;BME280;72031;51.786;4.662;2024-01-07T02:30:59;102035.97;;;2.40;78.97
82395;BME280;72031;51.786;4.662;2024-01-07T02:33:25;102033.41;;;2.37;79.50
82395;BME280;72031;51.786;4.662;2024-01-07T02:35:50;102035.16;;;2.38;79.01
82395;BME280;72031;51.786;4.662;2024-01-07T02:38:16;102038.63;;;2.40;79.27
82395;BME280;72031;51.786;4.662;2024-01-07T02:40:41;102037.75;;;2.39;79.49
82395;BME280;72031;51.786;4.662;2024-01-07T02:43:08;102041.31;;;2.35;79.20
82395;BME280;72031;51.786;4.662;2024-01-07T02:45:33;102044.00;;;2.32;79.78
82395;BME280;72031;51.786;4.662;2024-01-07T02:47:58;102050.97;;;2.35;80.13
82395;BME280;72031;51.786;4.662;2024-01-07T02:50:24;102045.72;;;2.35;79.08
82395;BME280;72031;51.786;4.662;2024-01-07T02:52:49;102051.06;;;2.30;79.65
82395;BME280;72031;51.786;4.662;2024-01-07T02:55:15;102049.25;;;2.34;79.35
82395;BME280;72031;51.786;4.662;2024-01-07T02:57:41;102051.13;;;2.27;78.99
82395;BME280;72031;51.786;4.662;2024-01-07T03:00:06;102049.38;;;2.28;79.63
82395;BME280;72031;51.786;4.662;2024-01-07T03:02:33;102053.66;;;2.33;79.53
82395;BME280;72031;51.786;4.662;2024-01-07T03:04:58;102058.88;;;2.35;79.22
82395;BME280;72031;51.786;4.662;2024-01-07T03:07:24;102059.84;;;2.31;79.14
82395;BME280;72031;51.786;4.662;2024-01-07T03:09:50;102048.47;;;2.29;79.38
82395;BME280;72031;51.786;4.662;2024-01-07T03:12:16;102058.94;;;2.32;79.37
82395;BME280;72031;51.786;4.662;2024-01-07T03:14:41;102051.88;;;2.34;79.76
82395;BME280;72031;51.786;4.662;2024-01-07T03:17:07;102052.72;;;2.37;79.17
82395;BME280;72031;51.786;4.662;2024-01-07T03:19:33;102061.44;;;2.41;78.94
82395;BME280;72031;51.786;4.662;2024-01-07T03:21:58;102054.47;;;2.37;78.93
82395;BME280;72031;51.786;4.662;2024-01-07T03:24:24;102057.97;;;2.37;78.67
82395;BME280;72031;51.786;4.662;2024-01-07T03:26:49;102066.78;;;2.35;79.08
82395;BME280;72031;51.786;4.662;2024-01-07T03:29:15;102065.00;;;2.38;78.60
82395;BME280;72031;51.786;4.662;2024-01-07T03:31:41;102074.88;;;2.22;79.30
82395;BME280;72031;51.786;4.662;2024-01-07T03:34:06;102076.72;;;2.19;79.43
82395;BME280;72031;51.786;4.662;2024-01-07T03:36:32;102077.59;;;2.19;79.82
82395;BME280;72031;51.786;4.662;2024-01-07T03:38:57;102079.25;;;2.23;79.57
82395;BME280;72031;51.786;4.662;2024-01-07T03:41:23;102080.16;;;2.22;79.83
82395;BME280;72031;51.786;4.662;2024-01-07T03:43:49;102084.53;;;2.23;80.07
82395;BME280;72031;51.786;4.662;2024-01-07T03:46:16;102088.13;;;2.18;79.98
82395;BME280;72031;51.786;4.662;2024-01-07T03:48:42;102098.72;;;2.13;80.48
82395;BME280;72031;51.786;4.662;2024-01-07T03:51:07;102100.38;;;2.20;80.59
82395;BME280;72031;51.786;4.662;2024-01-07T03:53:33;102098.53;;;2.27;80.04
82395;BME280;72031;51.786;4.662;2024-01-07T03:55:59;102111.69;;;2.25;79.85
82395;BME280;72031;51.786;4.662;2024-01-07T03:58:24;102115.16;;;2.31;80.33
82395;BME280;72031;51.786;4.662;2024-01-07T04:00:50;102112.50;;;2.32;80.01
82395;BME280;72031;51.786;4.662;2024-01-07T04:03:16;102113.44;;;2.26;79.78
82395;BME280;72031;51.786;4.662;2024-01-07T04:05:41;102120.53;;;2.23;80.20
82395;BME280;72031;51.786;4.662;2024-01-07T04:08:09;102123.09;;;2.26;80.40
82395;BME280;72031;51.786;4.662;2024-01-07T04:10:37;102118.88;;;2.16;80.63
82395;BME280;72031;51.786;4.662;2024-01-07T04:13:03;102129.41;;;2.16;80.68
82395;BME280;72031;51.786;4.662;2024-01-07T04:15:30;102130.25;;;2.19;80.78
82395;BME280;72031;51.786;4.662;2024-01-07T04:17:56;102131.09;;;2.21;81.00
82395;BME280;72031;51.786;4.662;2024-01-07T04:20:21;102131.94;;;2.23;80.54
82395;BME280;72031;51.786;4.662;2024-01-07T04:22:48;102140.78;;;2.19;80.71
82395;BME280;72031;51.786;4.662;2024-01-07T04:25:14;102144.28;;;2.18;81.07
82395;BME280;72031;51.786;4.662;2024-01-07T04:27:39;102137.25;;;2.20;80.26
82395;BME280;72031;51.786;4.662;2024-01-07T04:30:06;102141.75;;;2.12;81.00
82395;BME280;72031;51.786;4.662;2024-01-07T04:32:32;102145.28;;;2.10;81.83
82395;BME280;72031;51.786;4.662;2024-01-07T04:34:58;102140.81;;;2.16;81.89
82395;BME280;72031;51.786;4.662;2024-01-07T04:37:24;102138.22;;;2.13;81.72
82395;BME280;72031;51.786;4.662;2024-01-07T04:39:51;102143.47;;;2.15;81.35
82395;BME280;72031;51.786;4.662;2024-01-07T04:42:19;102147.81;;;2.17;81.36
82395;BME280;72031;51.786;4.662;2024-01-07T04:44:45;102152.22;;;2.15;80.46
82395;BME280;72031;51.786;4.662;2024-01-07T04:47:27;102149.69;;;2.08;81.72
82395;BME280;72031;51.786;4.662;2024-01-07T04:49:54;102147.06;;;2.08;81.31
82395;BME280;72031;51.786;4.662;2024-01-07T04:52:20;102148.91;;;2.03;81.35
82395;BME280;72031;51.786;4.662;2024-01-07T04:54:46;102152.38;;;2.05;81.23
82395;BME280;72031;51.786;4.662;2024-01-07T04:57:11;102154.94;;;2.09;80.91
82395;BME280;72031;51.786;4.662;2024-01-07T04:59:37;102159.22;;;2.18;81.09
82395;BME280;72031;51.786;4.662;2024-01-07T05:02:03;102162.69;;;2.21;80.50
82395;BME280;72031;51.786;4.662;2024-01-07T05:04:28;102161.03;;;2.14;80.43
82395;BME280;72031;51.786;4.662;2024-01-07T05:06:54;102155.00;;;2.06;80.69
82395;BME280;72031;51.786;4.662;2024-01-07T05:09:19;102169.06;;;2.05;81.13
82395;BME280;72031;51.786;4.662;2024-01-07T05:11:45;102162.84;;;2.09;80.98
82395;BME280;72031;51.786;4.662;2024-01-07T05:14:11;102176.81;;;2.16;80.76
82395;BME280;72031;51.786;4.662;2024-01-07T05:16:36;102181.13;;;2.21;80.31
82395;BME280;72031;51.786;4.662;2024-01-07T05:19:02;102184.69;;;2.17;80.43
82395;BME280;72031;51.786;4.662;2024-01-07T05:21:28;102183.00;;;2.13;80.66
82395;BME280;72031;51.786;4.662;2024-01-07T05:23:53;102187.41;;;2.11;80.64
82395;BME280;72031;51.786;4.662;2024-01-07T05:26:19;102190.06;;;2.11;80.71
82395;BME280;72031;51.786;4.662;2024-01-07T05:28:44;102201.47;;;2.10;80.77
82395;BME280;72031;51.786;4.662;2024-01-07T05:31:19;102197.06;;;2.11;80.74
82395;BME280;72031;51.786;4.662;2024-01-07T05:33:45;102200.47;;;2.20;80.26
82395;BME280;72031;51.786;4.662;2024-01-07T05:36:14;102206.63;;;2.19;80.95
82395;BME280;72031;51.786;4.662;2024-01-07T05:38:41;102206.53;;;2.27;80.41
82395;BME280;72031;51.786;4.662;2024-01-07T05:41:07;102210.94;;;2.23;80.58
82395;BME280;72031;51.786;4.662;2024-01-07T05:43:32;102211.94;;;2.15;80.43
82395;BME280;72031;51.786;4.662;2024-01-07T05:45:58;102211.06;;;2.14;81.03
82395;BME280;72031;51.786;4.662;2024-01-07T05:48:23;102213.63;;;2.17;80.63
82395;BME280;72031;51.786;4.662;2024-01-07T05:50:49;102214.50;;;2.21;80.84
82395;BME280;72031;51.786;4.662;2024-01-07T05:53:17;102220.50;;;2.31;80.63
82395;BME280;72031;51.786;4.662;2024-01-07T05:55:43;102224.94;;;2.29;80.93
82395;BME280;72031;51.786;4.662;2024-01-07T05:58:08;102228.34;;;2.34;80.37
82395;BME280;72031;51.786;4.662;2024-01-07T06:00:34;102227.50;;;2.32;80.87
82395;BME280;72031;51.786;4.662;2024-01-07T06:02:59;102226.69;;;2.26;80.58
82395;BME280;72031;51.786;4.662;2024-01-07T06:05:26;102229.34;;;2.25;80.32
82395;BME280;72031;51.786;4.662;2024-01-07T06:07:51;102231.13;;;2.23;80.34
82395;BME280;72031;51.786;4.662;2024-01-07T06:10:17;102233.88;;;2.15;80.64
82395;BME280;72031;51.786;4.662;2024-01-07T06:12:42;102246.22;;;2.12;80.70
82395;BME280;72031;51.786;4.662;2024-01-07T06:15:08;102243.56;;;2.13;80.44
82395;BME280;72031;51.786;4.662;2024-01-07T06:17:34;102254.88;;;2.21;80.29
82395;BME280;72031;51.786;4.662;2024-01-07T06:20:00;102259.38;;;2.09;80.48
82395;BME280;72031;51.786;4.662;2024-01-07T06:22:25;102258.53;;;2.08;80.24
82395;BME280;72031;51.786;4.662;2024-01-07T06:24:51;102265.63;;;2.03;80.63
82395;BME280;72031;51.786;4.662;2024-01-07T06:27:16;102267.38;;;2.04;79.97
82395;BME280;72031;51.786;4.662;2024-01-07T06:29:42;102269.97;;;2.06;79.66
82395;BME280;72031;51.786;4.662;2024-01-07T06:32:07;102270.88;;;2.05;80.11
82395;BME280;72031;51.786;4.662;2024-01-07T06:34:35;102272.63;;;2.04;79.44
82395;BME280;72031;51.786;4.662;2024-01-07T06:37:01;102283.09;;;2.10;80.19
82395;BME280;72031;51.786;4.662;2024-01-07T06:39:26;102286.56;;;2.12;79.40
82395;BME280;72031;51.786;4.662;2024-01-07T06:41:52;102291.84;;;2.09;79.66
82395;BME280;72031;51.786;4.662;2024-01-07T06:44:17;102297.09;;;2.12;79.66
82395;BME280;72031;51.786;4.662;2024-01-07T06:46:43;102299.66;;;2.18;79.77
82395;BME280;72031;51.786;4.662;2024-01-07T06:49:08;102304.94;;;2.20;79.24
82395;BME280;72031;51.786;4.662;2024-01-07T06:51:34;102310.25;;;2.14;78.71
82395;BME280;72031;51.786;4.662;2024-01-07T06:53:59;102308.47;;;2.16;78.96
82395;BME280;72031;51.786;4.662;2024-01-07T06:56:25;102313.75;;;2.14;78.00
82395;BME280;72031;51.786;4.662;2024-01-07T06:58:50;102314.69;;;2.10;77.99
82395;BME280;72031;51.786;4.662;2024-01-07T07:01:19;102313.72;;;2.16;78.08
82395;BME280;72031;51.786;4.662;2024-01-07T07:03:46;102305.78;;;2.20;78.73
82395;BME280;72031;51.786;4.662;2024-01-07T07:06:12;102319.00;;;2.19;78.58
82395;BME280;72031;51.786;4.662;2024-01-07T07:08:38;102321.59;;;2.17;78.03
82395;BME280;72031;51.786;4.662;2024-01-07T07:11:04;102316.31;;;2.20;78.39
82395;BME280;72031;51.786;4.662;2024-01-07T07:13:29;102322.34;;;2.30;78.17
82395;BME280;72031;51.786;4.662;2024-01-07T07:15:55;102335.63;;;2.21;77.93
82395;BME280;72031;51.786;4.662;2024-01-07T07:18:20;102336.47;;;2.23;77.47
82395;BME280;72031;51.786;4.662;2024-01-07T07:20:47;102344.44;;;2.20;77.38
82395;BME280;72031;51.786;4.662;2024-01-07T07:23:12;102347.09;;;2.15;78.15
82395;BME280;72031;51.786;4.662;2024-01-07T07:25:39;102355.00;;;2.15;77.83
82395;BME280;72031;51.786;4.662;2024-01-07T07:28:04;102354.94;;;2.21;77.68
82395;BME280;72031;51.786;4.662;2024-01-07T07:30:30;102361.13;;;2.16;77.48
82395;BME280;72031;51.786;4.662;2024-01-07T07:32:55;102364.69;;;2.12;77.50
82395;BME280;72031;51.786;4.662;2024-01-07T07:35:21;102370.81;;;2.14;77.54
82395;BME280;72031;51.786;4.662;2024-01-07T07:37:47;102361.19;;;2.13;78.34
82395;BME280;72031;51.786;4.662;2024-01-07T07:40:13;102369.09;;;2.08;78.15
82395;BME280;72031;51.786;4.662;2024-01-07T07:42:39;102370.84;;;2.12;78.32
82395;BME280;72031;51.786;4.662;2024-01-07T07:45:04;102377.06;;;2.04;78.66
82395;BME280;72031;51.786;4.662;2024-01-07T07:47:30;102379.63;;;2.08;79.12
82395;BME280;72031;51.786;4.662;2024-01-07T07:49:56;102395.53;;;1.99;78.45
82395;BME280;72031;51.786;4.662;2024-01-07T07:52:22;102394.69;;;1.97;78.71
82395;BME280;72031;51.786;4.662;2024-01-07T07:54:51;102397.31;;;1.97;79.48
82395;BME280;72031;51.786;4.662;2024-01-07T07:57:16;102400.78;;;2.02;79.11
82395;BME280;72031;51.786;4.662;2024-01-07T07:59:42;102400.72;;;2.07;79.11
82395;BME280;72031;51.786;4.662;2024-01-07T08:02:08;102404.28;;;2.04;78.77
82395;BME280;72031;51.786;4.662;2024-01-07T08:04:34;102411.31;;;2.01;77.92
82395;BME280;72031;51.786;4.662;2024-01-07T08:06:59;102414.81;;;2.03;78.00
82395;BME280;72031;51.786;4.662;2024-01-07T08:09:26;102413.03;;;2.06;78.31
82395;BME280;72031;51.786;4.662;2024-01-07T08:11:51;102417.38;;;2.12;77.91
82395;BME280;72031;51.786;4.662;2024-01-07T08:14:17;102422.69;;;2.04;78.01
82395;BME280;72031;51.786;4.662;2024-01-07T08:16:42;102424.41;;;2.11;78.06
82395;BME280;72031;51.786;4.662;2024-01-07T08:19:08;102425.25;;;2.12;77.67
82395;BME280;72031;51.786;4.662;2024-01-07T08:21:33;102424.44;;;2.05;77.82
82395;BME280;72031;51.786;4.662;2024-01-07T08:23:59;102427.97;;;2.04;78.24
82395;BME280;72031;51.786;4.662;2024-01-07T08:26:24;102427.13;;;2.02;78.11
82395;BME280;72031;51.786;4.662;2024-01-07T08:28:50;102427.19;;;1.90;78.42
82395;BME280;72031;51.786;4.662;2024-01-07T08:31:15;102435.06;;;1.93;78.29
82395;BME280;72031;51.786;4.662;2024-01-07T08:33:41;102449.06;;;1.98;78.13
82395;BME280;72031;51.786;4.662;2024-01-07T08:36:07;102446.47;;;1.95;78.25
82395;BME280;72031;51.786;4.662;2024-01-07T08:38:32;102449.03;;;2.01;78.40
82395;BME280;72031;51.786;4.662;2024-01-07T08:40:58;102449.91;;;2.05;78.61
82395;BME280;72031;51.786;4.662;2024-01-07T08:43:23;102453.47;;;1.96;78.03
82395;BME280;72031;51.786;4.662;2024-01-07T08:45:49;102461.38;;;1.97;78.46
82395;BME280;72031;51.786;4.662;2024-01-07T08:48:15;102460.56;;;1.88;78.12
82395;BME280;72031;51.786;4.662;2024-01-07T08:50:41;102461.41;;;1.91;78.55
82395;BME280;72031;51.786;4.662;2024-01-07T08:53:06;102474.53;;;1.96;78.19
82395;BME280;72031;51.786;4.662;2024-01-07T08:55:32;102478.91;;;1.97;78.43
82395;BME280;72031;51.786;4.662;2024-01-07T08:57:57;102477.03;;;2.10;78.48
82395;BME280;72031;51.786;4.662;2024-01-07T09:00:23;102463.03;;;2.06;77.96
82395;BME280;72031;51.786;4.662;2024-01-07T09:02:55;102475.38;;;2.03;77.82
82395;BME280;72031;51.786;4.662;2024-01-07T09:05:20;102483.28;;;2.00;77.74
82395;BME280;72031;51.786;4.662;2024-01-07T09:07:45;102492.03;;;2.03;77.23
82395;BME280;72031;51.786;4.662;2024-01-07T09:10:11;102493.00;;;1.94;76.54
82395;BME280;72031;51.786;4.662;2024-01-07T09:12:38;102494.81;;;1.86;76.76
82395;BME280;72031;51.786;4.662;2024-01-07T09:15:05;102497.38;;;1.94;77.31
82395;BME280;72031;51.786;4.662;2024-01-07T09:17:34;102499.97;;;1.97;77.29
82395;BME280;72031;51.786;4.662;2024-01-07T09:20:00;102511.38;;;2.02;76.92
82395;BME280;72031;51.786;4.662;2024-01-07T09:22:25;102508.72;;;2.01;76.42
82395;BME280;72031;51.786;4.662;2024-01-07T09:24:51;102519.16;;;2.13;76.51
82395;BME280;72031;51.786;4.662;2024-01-07T09:27:16;102519.09;;;2.22;77.03
82395;BME280;72031;51.786;4.662;2024-01-07T09:29:42;102521.69;;;2.28;75.86
82395;BME280;72031;51.786;4.662;2024-01-07T09:32:07;102512.16;;;2.13;76.50
82395;BME280;72031;51.786;4.662;2024-01-07T09:34:33;102524.44;;;2.10;76.88
82395;BME280;72031;51.786;4.662;2024-01-07T09:36:58;102524.41;;;2.14;77.11
82395;BME280;72031;51.786;4.662;2024-01-07T09:39:24;102536.69;;;2.17;76.16
82395;BME280;72031;51.786;4.662;2024-01-07T09:41:51;102534.91;;;2.17;76.89
82395;BME280;72031;51.786;4.662;2024-01-07T09:44:18;102537.56;;;2.16;76.34
82395;BME280;72031;51.786;4.662;2024-01-07T09:46:44;102545.53;;;2.08;76.78
82395;BME280;72031;51.786;4.662;2024-01-07T09:49:15;102545.56;;;2.04;76.68
82395;BME280;72031;51.786;4.662;2024-01-07T09:51:45;102543.84;;;2.00;76.14
82395;BME280;72031;51.786;4.662;2024-01-07T09:54:15;102553.53;;;1.96;76.44
82395;BME280;72031;51.786;4.662;2024-01-07T09:56:50;102553.53;;;1.93;76.66
82395;BME280;72031;51.786;4.662;2024-01-07T09:59:17;102560.50;;;2.00;76.31
82395;BME280;72031;51.786;4.662;2024-01-07T10:01:44;102558.81;;;1.94;75.58
82395;BME280;72031;51.786;4.662;2024-01-07T10:04:11;102563.19;;;1.94;75.04
82395;BME280;72031;51.786;4.662;2024-01-07T10:06:36;102569.25;;;2.05;75.69
82395;BME280;72031;51.786;4.662;2024-01-07T10:09:03;102575.38;;;2.09;75.08
82395;BME280;72031;51.786;4.662;2024-01-07T10:11:31;102577.16;;;2.01;75.58
82395;BME280;72031;51.786;4.662;2024-01-07T10:13:58;102572.78;;;2.01;75.25
82395;BME280;72031;51.786;4.662;2024-01-07T10:16:24;102576.28;;;2.00;74.76
82395;BME280;72031;51.786;4.662;2024-01-07T10:18:49;102581.56;;;2.03;74.80
82395;BME280;72031;51.786;4.662;2024-01-07T10:21:15;102585.91;;;2.07;75.69
82395;BME280;72031;51.786;4.662;2024-01-07T10:23:40;102584.13;;;2.12;74.97
82395;BME280;72031;51.786;4.662;2024-01-07T10:26:07;102584.16;;;2.06;74.11
82395;BME280;72031;51.786;4.662;2024-01-07T10:28:33;102586.75;;;2.12;74.58
82395;BME280;72031;51.786;4.662;2024-01-07T10:30:59;102590.28;;;2.10;74.95
82395;BME280;72031;51.786;4.662;2024-01-07T10:33:24;102593.78;;;2.13;75.07
82395;BME280;72031;51.786;4.662;2024-01-07T10:36:02;102596.38;;;2.19;74.04
82395;BME280;72031;51.786;4.662;2024-01-07T10:38:31;102591.13;;;2.16;74.78
82395;BME280;72031;51.786;4.662;2024-01-07T10:40:59;102587.59;;;2.16;74.71
82395;BME280;72031;51.786;4.662;2024-01-07T10:43:29;102589.41;;;2.09;74.76
82395;BME280;72031;51.786;4.662;2024-01-07T10:45:55;102597.34;;;2.03;75.12
82395;BME280;72031;51.786;4.662;2024-01-07T10:48:21;102591.22;;;2.01;76.20
82395;BME280;72031;51.786;4.662;2024-01-07T10:50:55;102593.91;;;1.93;76.02
82395;BME280;72031;51.786;4.662;2024-01-07T10:53:21;102595.63;;;1.93;75.51
82395;BME280;72031;51.786;4.662;2024-01-07T10:56:00;102598.34;;;1.87;75.86
82395;BME280;72031;51.786;4.662;2024-01-07T10:58:26;102600.09;;;1.86;75.92
82395;BME280;72031;51.786;4.662;2024-01-07T11:00:53;102600.03;;;1.97;76.55
82395;BME280;72031;51.786;4.662;2024-01-07T11:06:03;102594.78;;;1.91;76.44
82395;BME280;72031;51.786;4.662;2024-01-07T11:08:39;102592.22;;;1.79;75.53
82395;BME280;72031;51.786;4.662;2024-01-07T11:11:22;102602.75;;;1.79;76.33
82395;BME280;72031;51.786;4.662;2024-01-07T11:13:50;102607.09;;;1.84;75.45
82395;BME280;72031;51.786;4.662;2024-01-07T11:19:04;102612.41;;;1.80;75.57
82395;BME280;72031;51.786;4.662;2024-01-07T11:21:30;102615.88;;;1.88;76.16
82395;BME280;72031;51.786;4.662;2024-01-07T11:23:55;102602.66;;;1.97;75.88
82395;BME280;72031;51.786;4.662;2024-01-07T11:26:21;102598.25;;;2.02;75.21
82395;BME280;72031;51.786;4.662;2024-01-07T11:28:55;102600.81;;;2.08;75.44
82395;BME280;72031;51.786;4.662;2024-01-07T11:34:04;102599.00;;;2.16;75.15
82395;BME280;72031;51.786;4.662;2024-01-07T11:36:31;102599.00;;;2.19;75.03
82395;BME280;72031;51.786;4.662;2024-01-07T11:38:57;102600.84;;;2.05;75.18
82395;BME280;72031;51.786;4.662;2024-01-07T11:41:24;102606.13;;;2.05;74.38
82395;BME280;72031;51.786;4.662;2024-01-07T11:43:52;102604.44;;;1.90;73.94
82395;BME280;72031;51.786;4.662;2024-01-07T11:46:18;102601.84;;;1.87;75.00
82395;BME280;72031;51.786;4.662;2024-01-07T11:48:49;102595.69;;;1.88;74.27
82395;BME280;72031;51.786;4.662;2024-01-07T11:51:16;102599.16;;;1.95;74.60
82395;BME280;72031;51.786;4.662;2024-01-07T11:53:42;102600.88;;;2.02;73.43
82395;BME280;72031;51.786;4.662;2024-01-07T11:56:10;102606.16;;;2.02;73.79
82395;BME280;72031;51.786;4.662;2024-01-07T11:58:36;102605.25;;;2.03;73.19
82395;BME280;72031;51.786;4.662;2024-01-07T12:01:01;102608.78;;;2.02;72.31
82395;BME280;72031;51.786;4.662;2024-01-07T12:03:28;102614.91;;;2.01;71.76
82395;BME280;72031;51.786;4.662;2024-01-07T12:05:54;102611.41;;;1.99;71.96
82395;BME280;72031;51.786;4.662;2024-01-07T12:08:19;102614.97;;;1.93;72.00
82395;BME280;72031;51.786;4.662;2024-01-07T12:10:46;102633.38;;;1.92;72.11
82395;BME280;72031;51.786;4.662;2024-01-07T12:13:13;102630.78;;;1.87;71.51
82395;BME280;72031;51.786;4.662;2024-01-07T12:15:39;102622.88;;;1.89;71.60
82395;BME280;72031;51.786;4.662;2024-01-07T12:18:07;102627.31;;;1.79;70.48
82395;BME280;72031;51.786;4.662;2024-01-07T12:20:32;102622.09;;;1.72;70.18
82395;BME280;72031;51.786;4.662;2024-01-07T12:23:05;102629.16;;;1.60;71.15
82395;BME280;72031;51.786;4.662;2024-01-07T12:25:31;102630.00;;;1.65;71.31
82395;BME280;72031;51.786;4.662;2024-01-07T12:28:17;102629.06;;;1.82;70.83
82395;BME280;72031;51.786;4.662;2024-01-07T12:30:44;102636.03;;;1.93;70.96
82395;BME280;72031;51.786;4.662;2024-01-07T12:33:09;102628.03;;;2.07;71.09
82395;BME280;72031;51.786;4.662;2024-01-07T12:35:35;102631.53;;;2.12;70.29
82395;BME280;72031;51.786;4.662;2024-01-07T12:38:02;102634.97;;;2.23;69.88
82395;BME280;72031;51.786;4.662;2024-01-07T12:40:28;102640.16;;;2.37;69.47
82395;BME280;72031;51.786;4.662;2024-01-07T12:42:55;102639.16;;;2.52;69.63
82395;BME280;72031;51.786;4.662;2024-01-07T12:45:20;102641.84;;;2.46;69.57
82395;BME280;72031;51.786;4.662;2024-01-07T12:47:46;102645.41;;;2.39;68.48
82395;BME280;72031;51.786;4.662;2024-01-07T12:50:13;102646.28;;;2.35;69.29
82395;BME280;72031;51.786;4.662;2024-01-07T12:52:39;102643.72;;;2.30;68.67
82395;BME280;72031;51.786;4.662;2024-01-07T12:55:06;102649.91;;;2.18;69.23
82395;BME280;72031;51.786;4.662;2024-01-07T12:57:36;102645.56;;;2.13;69.28
82395;BME280;72031;51.786;4.662;2024-01-07T13:00:03;102649.94;;;2.20;69.07
82395;BME280;72031;51.786;4.662;2024-01-07T13:02:32;102649.91;;;2.21;68.93